Time;durP1;ratioP1;P1;durP2;ratioP2;P2;SDS_P1;SDS_P2;PMS_P1;PMS_P2;Temp;Humidity;BMP_temperature;BMP_pressure;BME280_temperature;BME280_humidity;BME280_pressure;Samples;Min_cycle;Max_cycle;Signal;HPM_P1;HPM_P2
2023/01/26 00:00:54;;;;;;;58.05;28.05;;;;;;;2.20;47.54;102538.91;7399757;19;20009;-64
2023/01/26 00:03:21;;;;;;;55.28;26.52;;;;;;;2.29;47.36;102547.41;7393115;19;20600;-64
2023/01/26 00:05:47;;;;;;;59.08;28.25;;;;;;;1.97;47.69;102544.38;7392569;19;20040;-64
2023/01/26 00:08:13;;;;;;;59.90;27.35;;;;;;;2.12;47.65;102547.34;7392187;19;20482;-64
2023/01/26 00:10:40;;;;;;;59.50;28.42;;;;;;;2.23;47.26;102543.81;7395262;19;20019;-62
2023/01/26 00:13:09;;;;;;;55.42;26.40;;;;;;;2.21;47.19;102543.19;7393723;19;20003;-63
2023/01/26 00:15:35;;;;;;;59.80;27.90;;;;;;;2.32;47.29;102533.44;7394875;19;19999;-64
2023/01/26 00:18:09;;;;;;;55.65;26.38;;;;;;;2.11;47.51;102526.84;7395198;19;20041;-65
2023/01/26 00:20:35;;;;;;;59.08;27.90;;;;;;;2.27;47.63;102533.34;7396234;19;20082;-65
2023/01/26 00:23:01;;;;;;;60.63;28.58;;;;;;;2.27;47.46;102532.50;7393248;19;20011;-65
2023/01/26 00:25:27;;;;;;;56.58;26.60;;;;;;;2.33;47.45;102528.84;7393223;19;20003;-65
2023/01/26 00:27:52;;;;;;;56.67;26.08;;;;;;;2.33;47.57;102524.28;7393834;19;20013;-65
2023/01/26 00:30:19;;;;;;;58.45;28.05;;;;;;;2.36;47.49;102515.72;7393744;19;20050;-65
2023/01/26 00:32:45;;;;;;;54.58;26.75;;;;;;;2.42;47.27;102508.56;7395441;19;20005;-64
2023/01/26 00:35:11;;;;;;;54.58;24.95;;;;;;;2.24;47.67;102515.78;7393707;19;19990;-65
2023/01/26 00:37:37;;;;;;;53.80;26.08;;;;;;;2.22;47.66;102515.22;7391967;19;20028;-65
2023/01/26 00:40:03;;;;;;;57.17;27.17;;;;;;;2.00;48.02;102511.56;7394857;19;20012;-65
2023/01/26 00:42:28;;;;;;;56.40;26.65;;;;;;;2.11;48.17;102508.00;7394406;19;20019;-65
2023/01/26 00:44:54;;;;;;;56.30;26.60;;;;;;;2.06;47.98;102505.22;7393999;19;19994;-65
2023/01/26 00:47:20;;;;;;;59.15;26.67;;;;;;;2.12;48.01;102498.88;7391281;19;20471;-65
2023/01/26 00:49:45;;;;;;;57.15;26.25;;;;;;;2.14;48.13;102502.13;7395070;19;20024;-65
2023/01/26 00:52:12;;;;;;;56.17;26.88;;;;;;;2.02;48.21;102504.06;7394912;19;19992;-61
2023/01/26 00:54:38;;;;;;;58.97;26.77;;;;;;;2.17;48.19;102506.22;7394497;19;20059;-65
2023/01/26 00:57:04;;;;;;;54.83;25.88;;;;;;;2.11;47.96;102508.00;7392019;19;20337;-65
2023/01/26 00:59:31;;;;;;;52.03;25.02;;;;;;;2.21;48.03;102508.19;7393712;19;20198;-65
2023/01/26 01:01:58;;;;;;;53.13;24.80;;;;;;;2.21;48.02;102508.19;7394392;19;20119;-65
2023/01/26 01:04:24;;;;;;;57.28;27.40;;;;;;;2.15;48.24;102498.38;7391617;19;20107;-66
2023/01/26 01:06:50;;;;;;;56.13;26.25;;;;;;;1.96;48.58;102499.63;7388433;19;20604;-65
2023/01/26 01:09:16;;;;;;;56.63;26.98;;;;;;;2.04;48.60;102500.06;7393105;19;20062;-65
2023/01/26 01:11:44;;;;;;;57.55;26.13;;;;;;;2.15;48.15;102501.09;7393267;19;20003;-65
2023/01/26 01:14:12;;;;;;;55.47;27.40;;;;;;;2.20;48.17;102489.56;7393572;19;20013;-65
2023/01/26 01:16:38;;;;;;;58.42;27.35;;;;;;;2.09;48.58;102487.75;7391883;19;20006;-67
2023/01/26 01:19:04;;;;;;;51.83;26.35;;;;;;;2.27;48.23;102489.41;7392426;19;20475;-67
2023/01/26 01:21:31;;;;;;;54.75;26.50;;;;;;;2.30;48.07;102488.91;7392939;19;20007;-67
2023/01/26 01:23:57;;;;;;;52.08;25.20;;;;;;;2.30;47.92;102487.06;7393058;19;20011;-67
2023/01/26 01:26:23;;;;;;;53.40;25.63;;;;;;;2.31;47.98;102487.88;7392135;19;20003;-68
2023/01/26 01:28:53;;;;;;;55.22;25.02;;;;;;;2.34;48.05;102492.78;7390930;19;20046;-67
2023/01/26 01:31:18;;;;;;;53.80;26.48;;;;;;;2.30;47.99;102486.22;7393176;19;20069;-68
2023/01/26 01:33:44;;;;;;;52.50;25.20;;;;;;;2.29;47.95;102479.22;7391392;19;20011;-66
2023/01/26 01:36:13;;;;;;;56.33;26.42;;;;;;;2.37;48.04;102478.81;7392553;19;20010;-68
2023/01/26 01:38:40;;;;;;;52.13;24.55;;;;;;;2.27;48.14;102476.78;7392893;19;20014;-67
2023/01/26 01:41:06;;;;;;;54.08;25.42;;;;;;;2.20;48.29;102476.94;7390847;19;20003;-67
2023/01/26 01:43:32;;;;;;;52.10;24.90;;;;;;;2.39;48.06;102476.69;7393011;19;20638;-67
2023/01/26 01:46:02;;;;;;;56.35;26.00;;;;;;;2.18;48.29;102476.34;7390583;19;20026;-67
2023/01/26 01:48:57;;;;;;;56.83;26.70;;;;;;;2.37;48.51;102471.53;7389893;19;20011;-68
2023/01/26 01:51:29;;;;;;;54.17;25.80;;;;;;;2.55;47.65;102472.34;7392095;19;20108;-67
2023/01/26 01:53:58;;;;;;;57.13;25.92;;;;;;;2.39;48.05;102465.91;7392406;19;20003;-68
2023/01/26 01:56:28;;;;;;;54.22;25.05;;;;;;;2.48;48.01;102467.13;7391744;19;20010;-68
2023/01/26 01:58:58;;;;;;;53.50;25.55;;;;;;;2.39;48.15;102468.59;7391353;19;20034;-64
2023/01/26 02:01:25;;;;;;;55.60;25.73;;;;;;;2.44;48.04;102478.66;7392159;19;20007;-64
2023/01/26 02:03:55;;;;;;;57.53;25.55;;;;;;;2.32;48.62;102468.75;7391363;19;20011;-64
2023/01/26 02:06:32;;;;;;;59.08;26.02;;;;;;;2.38;48.49;102469.66;7390843;19;19994;-65
2023/01/26 02:08:58;;;;;;;58.05;26.48;;;;;;;2.45;48.47;102456.03;7390904;19;20007;-65
2023/01/26 02:11:33;;;;;;;55.38;25.42;;;;;;;2.52;48.37;102456.69;7392352;19;20011;-64
2023/01/26 02:14:03;;;;;;;58.17;26.88;;;;;;;2.61;48.11;102461.41;7389951;19;20104;-65
2023/01/26 02:16:29;;;;;;;53.95;26.08;;;;;;;2.59;48.31;102460.03;7388692;19;19999;-64
2023/01/26 02:18:55;;;;;;;55.03;26.35;;;;;;;2.50;48.51;102448.84;7390971;19;20003;-65
2023/01/26 02:21:22;;;;;;;56.90;25.27;;;;;;;2.50;48.54;102456.09;7392021;19;20015;-65
2023/01/26 02:24:27;;;;;;;53.22;25.88;;;;;;;2.44;48.53;102444.44;7389956;19;20007;-63
2023/01/26 02:26:53;;;;;;;54.67;25.40;;;;;;;2.45;48.44;102439.84;7389657;19;20076;-63
2023/01/26 02:29:21;;;;;;;56.97;27.13;;;;;;;2.53;48.33;102445.63;7389207;19;20088;-63
2023/01/26 02:31:47;;;;;;;58.78;26.38;;;;;;;2.47;48.43;102440.41;7390933;19;20010;-63
2023/01/26 02:34:13;;;;;;;61.40;26.92;;;;;;;2.47;48.39;102440.41;7389469;19;19999;-62
2023/01/26 02:36:39;;;;;;;54.45;26.38;;;;;;;2.58;48.47;102443.03;7389227;19;19995;-62
2023/01/26 02:39:10;;;;;;;55.95;25.77;;;;;;;2.65;48.45;102442.03;7391603;19;20003;-62
2023/01/26 02:44:24;;;;;;;55.35;26.20;;;;;;;2.50;48.49;102438.06;7388484;19;20071;-61
2023/01/26 02:46:51;;;;;;;54.17;24.95;;;;;;;2.50;48.53;102434.53;7389829;19;19995;-62
2023/01/26 02:52:03;;;;;;;;;;;;;;;2.43;49.20;102442.78;7392018;19;20010;-61
2023/01/26 02:57:20;;;;;;;54.90;25.70;;;;;;;2.48;48.65;102434.78;7386263;19;19998;-63
2023/01/26 02:59:46;;;;;;;50.63;24.02;;;;;;;2.65;48.30;102436.66;7390287;19;20066;-62
2023/01/26 03:02:11;;;;;;;52.67;25.00;;;;;;;2.60;48.58;102432.81;7391438;19;20032;-63
2023/01/26 03:04:37;;;;;;;49.10;24.83;;;;;;;2.65;48.19;102423.16;7389457;19;20006;-63
2023/01/26 03:07:03;;;;;;;58.95;26.75;;;;;;;2.61;48.40;102420.97;7386595;19;19998;-63
2023/01/26 03:09:28;;;;;;;59.67;25.55;;;;;;;2.64;48.45;102426.94;7388704;19;20025;-62
2023/01/26 03:11:54;;;;;;;53.97;24.27;;;;;;;2.56;48.65;102428.97;7388531;19;20002;-62
2023/01/26 03:14:20;;;;;;;59.97;26.42;;;;;;;2.52;48.72;102427.84;7390983;19;20071;-62
2023/01/26 03:16:46;;;;;;;55.78;25.40;;;;;;;2.70;48.68;102428.63;7388036;19;19995;-62
2023/01/26 03:27:42;;;;;;;52.22;23.90;;;;;;;2.67;48.54;102418.34;7386968;19;20003;-64
2023/01/26 03:30:09;;;;;;;57.28;25.77;;;;;;;2.66;48.50;102412.13;7394980;19;20005;-64
2023/01/26 03:32:35;;;;;;;51.85;24.38;;;;;;;2.52;48.72;102406.28;7396895;19;20066;-64
2023/01/26 03:35:01;;;;;;;55.10;24.48;;;;;;;2.51;48.95;102410.03;7397724;19;20344;-63
2023/01/26 03:37:26;;;;;;;55.15;25.75;;;;;;;2.54;48.88;102412.22;7394411;19;20016;-63
2023/01/26 03:56:31;;;;;;;50.35;23.52;;;;;;;2.70;48.57;102407.91;7395291;19;20068;-63
2023/01/26 03:59:09;;;;;;;52.72;23.85;;;;;;;2.78;48.52;102407.47;7396208;19;20070;-63
2023/01/26 04:01:37;;;;;;;52.45;24.42;;;;;;;2.78;48.54;102404.78;7394643;19;20014;-64
2023/01/26 04:09:35;;;;;;;58.13;24.65;;;;;;;2.74;48.67;102398.22;7396193;19;20022;-63
2023/01/26 04:12:02;;;;;;;59.35;25.38;;;;;;;2.65;48.81;102401.59;7395874;19;20007;-63
2023/01/26 04:22:44;;;;;;;58.63;24.70;;;;;;;2.68;48.92;102384.94;7395918;19;19934;-63
2023/01/26 04:25:13;;;;;;;55.97;24.30;;;;;;;2.80;48.85;102380.22;7395095;19;20029;-63
2023/01/26 04:27:40;;;;;;;55.10;24.52;;;;;;;2.70;48.93;102382.78;7390982;19;20006;-63
2023/01/26 04:30:09;;;;;;;49.95;22.67;;;;;;;2.64;49.19;102378.41;7392559;19;20006;-63
2023/01/26 04:32:42;;;;;;;54.55;24.40;;;;;;;2.62;49.00;102384.06;7395408;19;20077;-64
2023/01/26 04:35:09;;;;;;;48.67;22.33;;;;;;;2.67;48.87;102383.28;7395912;19;20474;-63
2023/01/26 04:37:35;;;;;;;54.92;23.10;;;;;;;2.72;48.87;102389.56;7389649;19;20356;-55
2023/01/26 04:40:01;;;;;;;51.65;22.50;;;;;;;2.82;48.79;102388.91;7392843;19;20027;-55
2023/01/26 04:42:26;;;;;;;52.95;23.08;;;;;;;2.63;49.16;102384.84;7394642;19;19998;-55
2023/01/26 04:44:53;;;;;;;51.33;22.85;;;;;;;2.74;49.13;102383.94;7394545;19;20023;-55
2023/01/26 04:47:20;;;;;;;46.65;22.42;;;;;;;2.74;48.92;102370.47;7393158;19;20003;-55
2023/01/26 04:49:46;;;;;;;51.75;22.55;;;;;;;2.71;48.91;102376.34;7395246;19;20023;-56
2023/01/26 04:52:12;;;;;;;53.05;22.88;;;;;;;2.69;48.90;102370.38;7395404;19;19998;-56
2023/01/26 04:54:38;;;;;;;50.20;22.23;;;;;;;2.71;49.10;102371.75;7394789;19;20013;-54
2023/01/26 04:57:04;;;;;;;47.60;21.92;;;;;;;2.80;48.86;102372.13;7393053;19;20003;-55
2023/01/26 04:59:30;;;;;;;50.45;22.55;;;;;;;2.87;48.68;102369.25;7394446;19;20366;-56
2023/01/26 05:01:56;;;;;;;48.95;22.23;;;;;;;2.82;48.97;102366.50;7392567;19;20003;-55
2023/01/26 05:04:22;;;;;;;47.15;20.50;;;;;;;2.92;48.80;102375.53;7393369;19;20340;-56
2023/01/26 05:06:48;;;;;;;46.42;21.90;;;;;;;3.01;48.89;102369.72;7393408;19;20009;-54
2023/01/26 05:09:13;;;;;;;50.80;22.38;;;;;;;2.94;48.60;102369.91;7393563;19;20002;-54
2023/01/26 05:11:39;;;;;;;49.42;21.75;;;;;;;2.90;48.99;102368.75;7392248;19;20002;-55
2023/01/26 05:14:05;;;;;;;48.13;20.95;;;;;;;2.86;49.03;102363.06;7394287;19;20489;-53
2023/01/26 05:16:31;;;;;;;47.70;20.42;;;;;;;2.94;48.97;102365.31;7393649;19;20058;-56
2023/01/26 05:18:57;;;;;;;47.45;21.65;;;;;;;2.93;49.08;102369.06;7392801;19;20006;-56
2023/01/26 05:21:23;;;;;;;47.22;20.70;;;;;;;2.94;48.99;102372.59;7393737;19;20007;-56
2023/01/26 05:23:50;;;;;;;39.90;18.15;;;;;;;2.89;49.09;102373.34;7393674;19;20355;-56
2023/01/26 05:26:16;;;;;;;44.38;19.90;;;;;;;2.81;49.27;102371.09;7392429;19;20115;-56
2023/01/26 05:28:42;;;;;;;39.40;18.30;;;;;;;2.90;49.21;102369.59;7392720;19;20011;-55
2023/01/26 05:31:08;;;;;;;42.50;18.10;;;;;;;2.94;49.22;102365.31;7391739;19;20158;-56
2023/01/26 05:33:34;;;;;;;41.47;18.58;;;;;;;2.96;49.19;102370.47;7392713;19;20036;-54
2023/01/26 05:36:04;;;;;;;42.05;17.85;;;;;;;2.98;49.18;102362.94;7392722;19;20002;-54
2023/01/26 05:38:30;;;;;;;38.22;17.45;;;;;;;3.01;49.06;102369.72;7393335;19;20006;-55
2023/01/26 05:40:56;;;;;;;37.33;17.15;;;;;;;2.97;49.24;102367.50;7392759;19;20364;-55
2023/01/26 05:43:22;;;;;;;36.28;16.83;;;;;;;2.96;49.34;102368.56;7392928;19;20399;-52
2023/01/26 05:45:47;;;;;;;35.63;16.75;;;;;;;3.05;49.10;102365.44;7391412;19;20471;-55
2023/01/26 05:48:13;;;;;;;36.10;16.63;;;;;;;3.06;48.97;102372.47;7391929;19;20007;-55
2023/01/26 05:50:39;;;;;;;34.10;15.02;;;;;;;3.02;49.07;102371.31;7391118;19;20438;-55
2023/01/26 05:53:05;;;;;;;37.95;15.68;;;;;;;3.04;49.11;102374.63;7389277;19;19998;-56
2023/01/26 05:55:31;;;;;;;32.38;15.02;;;;;;;3.05;49.15;102376.22;7392266;19;20003;-54
2023/01/26 05:57:57;;;;;;;35.13;15.60;;;;;;;3.04;49.24;102372.72;7390555;19;20017;-54
2023/01/26 06:00:23;;;;;;;32.53;15.30;;;;;;;3.11;49.11;102370.63;7391253;19;19999;-55
2023/01/26 06:02:49;;;;;;;29.20;13.20;;;;;;;3.15;49.10;102368.25;7392460;19;20027;-54
2023/01/26 06:05:14;;;;;;;30.98;14.07;;;;;;;3.16;48.90;102368.00;7389061;19;20007;-52
2023/01/26 06:07:40;;;;;;;33.35;14.93;;;;;;;3.21;49.13;102369.16;7388341;19;20121;-55
2023/01/26 06:10:07;;;;;;;27.08;12.68;;;;;;;3.29;48.83;102374.09;7390370;19;20026;-55
2023/01/26 06:12:34;;;;;;;27.60;12.63;;;;;;;3.24;48.76;102376.75;7391288;19;20093;-55
2023/01/26 06:15:01;;;;;;;28.55;12.43;;;;;;;3.22;48.92;102373.44;7391424;19;19999;-55
2023/01/26 06:17:27;;;;;;;26.95;12.35;;;;;;;3.12;48.94;102383.06;7390065;19;20014;-56
2023/01/26 06:19:59;;;;;;;29.23;12.57;;;;;;;3.22;48.79;102379.69;7391437;19;20006;-56
2023/01/26 06:22:25;;;;;;;25.90;11.73;;;;;;;3.08;49.18;102375.72;7391956;19;20022;-56
2023/01/26 06:24:51;;;;;;;26.42;12.10;;;;;;;3.05;49.18;102376.22;7391329;19;20416;-56
2023/01/26 06:27:17;;;;;;;28.17;11.95;;;;;;;3.06;49.41;102367.06;7389663;19;20731;-56
2023/01/26 06:29:44;;;;;;;23.65;10.63;;;;;;;3.13;49.11;102373.09;7391475;19;20006;-56
2023/01/26 06:32:14;;;;;;;23.17;10.63;;;;;;;3.08;49.20;102370.34;7390321;19;20030;-55
2023/01/26 06:34:40;;;;;;;24.90;10.10;;;;;;;3.16;49.34;102378.00;7391166;19;20006;-56
2023/01/26 06:37:06;;;;;;;22.75;10.43;;;;;;;3.24;48.75;102374.84;7388847;19;20011;-56
2023/01/26 06:39:32;;;;;;;23.23;10.57;;;;;;;3.21;49.13;102375.34;7392371;19;20075;-56
2023/01/26 06:41:58;;;;;;;22.17;10.23;;;;;;;3.16;49.09;102381.50;7391225;19;19998;-57
2023/01/26 06:44:24;;;;;;;21.30;9.93;;;;;;;3.16;48.91;102386.09;7390629;19;20009;-56
2023/01/26 06:46:49;;;;;;;21.23;9.48;;;;;;;3.25;49.15;102387.28;7389822;19;19994;-57
2023/01/26 06:49:15;;;;;;;21.40;9.77;;;;;;;3.26;48.86;102388.91;7388775;19;19995;-57
2023/01/26 06:52:03;;;;;;;22.80;9.95;;;;;;;3.16;48.87;102389.59;7390522;19;20078;-56
2023/01/26 06:54:28;;;;;;;24.50;10.23;;;;;;;3.29;49.30;102383.00;7391336;19;20019;-57
2023/01/26 06:56:54;;;;;;;21.25;9.68;;;;;;;3.26;48.79;102388.91;7387434;19;19991;-57
2023/01/26 06:59:20;;;;;;;20.60;9.45;;;;;;;3.30;49.04;102387.34;7390117;19;20364;-56
2023/01/26 07:01:47;;;;;;;21.85;9.63;;;;;;;3.26;49.09;102386.19;7390029;19;20455;-56
2023/01/26 07:04:14;;;;;;;21.63;8.95;;;;;;;3.21;49.29;102394.22;7390983;19;19998;-55
2023/01/26 07:06:41;;;;;;;22.05;10.40;;;;;;;3.24;49.02;102398.31;7396145;19;20019;-56
2023/01/26 07:09:07;;;;;;;21.17;10.07;;;;;;;3.26;49.21;102402.38;7396163;19;20002;-56
2023/01/26 07:11:32;;;;;;;22.08;9.27;;;;;;;3.22;49.06;102412.06;7398967;19;20491;-56
2023/01/26 07:13:58;;;;;;;22.83;9.85;;;;;;;3.26;49.14;102405.09;7397633;19;19999;-55
2023/01/26 07:16:24;;;;;;;21.85;8.90;;;;;;;3.33;48.89;102403.00;7394690;19;20031;-55
2023/01/26 07:18:51;;;;;;;19.30;9.15;;;;;;;3.40;48.77;102393.91;7397212;19;20388;-56
2023/01/26 07:21:18;;;;;;;23.30;9.68;;;;;;;3.33;49.11;102400.31;7397660;19;20006;-56
2023/01/26 07:23:44;;;;;;;20.20;9.18;;;;;;;3.31;49.06;102404.34;7397480;19;20017;-57
2023/01/26 07:26:11;;;;;;;20.35;8.75;;;;;;;3.29;49.14;102411.88;7394667;19;20466;-55
2023/01/26 07:28:37;;;;;;;21.42;9.40;;;;;;;3.40;48.91;102410.09;7394643;19;20494;-55
2023/01/26 07:31:04;;;;;;;23.15;9.45;;;;;;;3.38;48.84;102409.53;7395827;19;20002;-56
2023/01/26 07:33:32;;;;;;;25.02;9.95;;;;;;;3.34;49.32;102423.53;7397670;19;20396;-56
2023/01/26 07:35:58;;;;;;;23.58;9.32;;;;;;;3.37;49.16;102416.84;7396629;19;20389;-54
2023/01/26 07:38:25;;;;;;;21.52;9.35;;;;;;;3.41;49.10;102412.53;7392242;19;20014;-55
2023/01/26 07:40:51;;;;;;;20.40;9.98;;;;;;;3.34;49.07;102407.34;7397082;19;19999;-55
2023/01/26 07:43:17;;;;;;;23.17;9.90;;;;;;;3.27;49.41;102416.69;7397529;19;20002;-56
2023/01/26 07:45:44;;;;;;;22.80;9.60;;;;;;;3.38;49.36;102418.44;7395733;19;20015;-56
2023/01/26 07:48:10;;;;;;;22.38;9.63;;;;;;;3.45;49.12;102413.72;7394467;19;19994;-56
2023/01/26 07:50:38;;;;;;;20.75;9.45;;;;;;;3.49;49.00;102424.81;7395268;19;20001;-56
2023/01/26 07:53:05;;;;;;;24.48;9.95;;;;;;;3.44;49.21;102422.88;7396805;19;20485;-54
2023/01/26 07:55:31;;;;;;;21.70;9.48;;;;;;;3.44;48.95;102417.47;7397106;19;20005;-56
2023/01/26 07:57:56;;;;;;;24.70;9.95;;;;;;;3.45;49.46;102410.19;7393384;19;20292;-56
2023/01/26 08:00:22;;;;;;;20.83;9.40;;;;;;;3.55;49.10;102413.00;7396561;19;20002;-55
2023/01/26 08:02:49;;;;;;;21.73;9.43;;;;;;;3.51;49.14;102409.97;7395132;19;20091;-54
2023/01/26 08:05:15;;;;;;;19.42;9.93;;;;;;;3.48;49.38;102415.09;7395598;19;20013;-54
2023/01/26 08:07:41;;;;;;;22.33;9.68;;;;;;;3.52;49.28;102418.91;7392943;19;19998;-55
2023/01/26 08:10:09;;;;;;;23.63;10.60;;;;;;;3.53;49.33;102409.72;7396832;19;20003;-56
2023/01/26 08:12:35;;;;;;;21.40;9.73;;;;;;;3.48;49.29;102407.78;7395672;19;19995;-54
2023/01/26 08:15:02;;;;;;;23.38;9.50;;;;;;;3.46;49.29;102415.34;7393707;19;20030;-54
2023/01/26 08:17:28;;;;;;;22.40;9.70;;;;;;;3.48;49.42;102412.38;7392934;19;20042;-54
2023/01/26 08:19:54;;;;;;;21.77;9.52;;;;;;;3.44;49.45;102408.56;7397175;19;20029;-55
2023/01/26 08:22:20;;;;;;;21.27;9.80;;;;;;;3.46;49.63;102409.13;7393507;19;19998;-56
2023/01/26 08:24:46;;;;;;;21.50;9.65;;;;;;;3.39;50.04;102425.50;7394828;19;20018;-52
2023/01/26 08:27:12;;;;;;;21.00;9.48;;;;;;;3.51;49.76;102428.06;7392145;19;20003;-54
2023/01/26 08:29:37;;;;;;;23.33;9.48;;;;;;;3.45;49.87;102429.06;7395675;19;20061;-56
2023/01/26 08:32:03;;;;;;;21.50;9.95;;;;;;;3.43;49.70;102431.22;7394388;19;19999;-54
2023/01/26 08:34:29;;;;;;;21.55;9.82;;;;;;;3.41;49.82;102428.75;7394899;19;20006;-54
2023/01/26 08:36:55;;;;;;;19.92;9.20;;;;;;;3.52;49.64;102429.72;7392787;19;20077;-55
2023/01/26 08:39:20;;;;;;;22.33;9.88;;;;;;;3.51;49.83;102430.78;7394979;19;20026;-55
2023/01/26 08:41:46;;;;;;;27.25;10.75;;;;;;;3.51;49.87;102434.28;7394138;19;20003;-55
2023/01/26 08:44:12;;;;;;;24.55;10.95;;;;;;;3.60;49.79;102437.34;7394518;19;19994;-56
2023/01/26 08:46:38;;;;;;;27.73;10.98;;;;;;;3.46;49.78;102436.13;7391893;19;20024;-56
2023/01/26 08:49:03;;;;;;;26.27;11.02;;;;;;;3.41;50.08;102438.72;7394109;19;20008;-56
2023/01/26 08:51:29;;;;;;;28.35;11.63;;;;;;;3.48;49.75;102442.88;7395007;19;20091;-56
2023/01/26 08:53:55;;;;;;;24.40;10.82;;;;;;;3.55;49.71;102433.78;7394801;19;20010;-55
2023/01/26 08:56:21;;;;;;;29.05;12.52;;;;;;;3.46;49.96;102441.53;7393398;19;20006;-56
2023/01/26 08:58:47;;;;;;;26.55;9.95;;;;;;;3.47;49.86;102432.34;7391924;19;19999;-55
2023/01/26 09:01:15;;;;;;;23.00;10.40;;;;;;;3.52;49.96;102441.31;7394030;19;20007;-56
2023/01/26 09:03:42;;;;;;;26.38;11.02;;;;;;;3.49;50.02;102441.81;7394999;19;20001;-55
2023/01/26 09:06:10;;;;;;;26.77;11.70;;;;;;;3.48;49.96;102437.47;7392567;19;20003;-56
2023/01/26 09:08:36;;;;;;;29.33;11.85;;;;;;;3.50;50.05;102435.38;7392546;19;20002;-54
2023/01/26 09:11:05;;;;;;;26.77;11.75;;;;;;;3.56;49.80;102433.53;7394558;19;20066;-54
2023/01/26 09:13:30;;;;;;;33.60;13.48;;;;;;;3.56;49.93;102444.34;7394088;19;20038;-54
2023/01/26 09:15:56;;;;;;;29.23;12.00;;;;;;;3.63;49.99;102436.03;7393066;19;19994;-54
2023/01/26 09:18:22;;;;;;;29.45;12.50;;;;;;;3.59;50.32;102441.13;7392752;19;20002;-53
2023/01/26 09:20:49;;;;;;;33.25;13.73;;;;;;;3.76;49.86;102440.22;7393547;19;20474;-56
2023/01/26 09:23:17;;;;;;;35.45;14.85;;;;;;;3.77;49.77;102434.56;7392171;19;19991;-55
2023/01/26 09:25:43;;;;;;;34.83;14.60;;;;;;;3.66;50.10;102438.22;7392007;19;20001;-55
2023/01/26 09:28:09;;;;;;;39.10;14.98;;;;;;;3.66;49.95;102430.13;7390813;19;20007;-54
2023/01/26 09:30:35;;;;;;;31.38;13.65;;;;;;;3.64;50.12;102429.56;7391478;19;20035;-55
2023/01/26 09:33:03;;;;;;;55.70;16.13;;;;;;;3.66;50.03;102436.34;7393642;19;19998;-55
2023/01/26 09:35:29;;;;;;;36.53;13.90;;;;;;;3.69;50.23;102427.72;7391271;19;19998;-55
2023/01/26 09:37:55;;;;;;;34.67;14.45;;;;;;;3.80;50.25;102431.34;7389952;19;20018;-54
2023/01/26 09:40:40;;;;;;;42.30;15.02;;;;;;;3.75;50.32;102430.47;7392895;19;20043;-55
2023/01/26 09:43:32;;;;;;;33.63;13.73;;;;;;;3.65;50.68;102434.72;7391253;19;20054;-55
2023/01/26 09:46:22;;;;;;;36.75;14.88;;;;;;;3.74;50.27;102443.19;7391503;19;20029;-55
2023/01/26 09:49:10;;;;;;;39.40;15.23;;;;;;;3.69;50.48;102445.84;7391620;19;20015;-55
2023/01/26 09:51:48;;;;;;;41.55;16.02;;;;;;;3.80;50.44;102446.75;7392955;19;20013;-54
2023/01/26 09:54:26;;;;;;;43.83;16.70;;;;;;;3.85;50.51;102435.97;7392899;19;20006;-55
2023/01/26 09:56:53;;;;;;;50.35;16.75;;;;;;;3.77;50.55;102436.44;7389481;19;20026;-55
2023/01/26 09:59:33;;;;;;;43.97;16.75;;;;;;;3.80;50.48;102430.53;7392816;19;20078;-55
2023/01/26 10:02:18;;;;;;;45.08;16.95;;;;;;;3.86;50.44;102430.31;7390606;19;20026;-56
2023/01/26 10:04:48;;;;;;;46.22;18.30;;;;;;;3.84;50.47;102434.38;7391861;19;20070;-56
2023/01/26 10:07:14;;;;;;;49.08;17.25;;;;;;;3.90;50.73;102426.06;7390788;19;20003;-56
2023/01/26 10:09:44;;;;;;;45.33;17.40;;;;;;;4.03;50.21;102421.28;7391600;19;20007;-56
2023/01/26 10:12:18;;;;;;;50.33;18.60;;;;;;;3.98;50.52;102416.66;7392130;19;20352;-56
2023/01/26 10:15:15;;;;;;;50.40;19.23;;;;;;;4.11;50.43;102410.00;7392534;19;19998;-56
2023/01/26 10:17:44;;;;;;;53.90;19.23;;;;;;;4.08;50.26;102405.94;7388960;19;20361;-56
2023/01/26 10:20:31;;;;;;;51.10;18.08;;;;;;;4.11;50.47;102412.72;7391331;19;20472;-56
2023/01/26 10:23:11;;;;;;;60.78;19.58;;;;;;;4.17;50.18;102411.69;7391283;19;20340;-55
2023/01/26 10:25:41;;;;;;;47.15;18.23;;;;;;;4.14;50.39;102412.22;7390024;19;20011;-56
2023/01/26 10:28:12;;;;;;;48.40;16.80;;;;;;;4.11;50.33;102412.72;7390034;19;19999;-55
2023/01/26 10:30:40;;;;;;;52.13;17.38;;;;;;;4.12;50.53;102421.63;7391719;19;20037;-56
2023/01/26 10:33:22;;;;;;;46.38;17.05;;;;;;;4.11;50.42;102410.00;7388984;19;20002;-57
2023/01/26 10:35:48;;;;;;;48.60;17.13;;;;;;;4.18;50.44;102415.22;7390211;19;20015;-54
2023/01/26 10:38:33;;;;;;;44.45;17.58;;;;;;;4.34;50.44;102403.44;7382662;19;20020;-64
2023/01/26 10:41:04;;;;;;;44.72;17.42;;;;;;;4.42;49.98;102404.81;7398726;19;19999;-64
2023/01/26 10:43:40;;;;;;;52.38;17.90;;;;;;;4.35;50.17;102399.66;7398898;19;20013;-64
2023/01/26 10:46:23;;;;;;;50.05;18.65;;;;;;;4.36;50.20;102400.47;7395760;19;20009;-63
2023/01/26 10:48:55;;;;;;;51.15;17.85;;;;;;;4.27;50.36;102402.81;7399037;19;20088;-62
2023/01/26 10:51:43;;;;;;;55.50;17.55;;;;;;;4.25;50.62;102399.56;7396538;19;19995;-62
2023/01/26 10:54:25;;;;;;;57.55;19.55;;;;;;;4.32;50.53;102413.72;7397761;19;20035;-63
2023/01/26 10:56:55;;;;;;;48.55;18.85;;;;;;;4.24;50.79;102420.41;7396846;19;20006;-65
2023/01/26 10:59:38;;;;;;;56.05;18.38;;;;;;;4.40;50.64;102409.69;7397485;19;20013;-69
2023/01/26 11:02:13;;;;;;;63.40;19.63;;;;;;;4.55;50.33;102409.78;7397673;19;20490;-67
2023/01/26 11:04:38;;;;;;;51.67;19.73;;;;;;;4.59;50.32;102410.91;7399667;19;19999;-68
2023/01/26 11:07:27;;;;;;;51.85;19.02;;;;;;;4.52;50.89;102414.91;7398409;19;20015;-68
2023/01/26 11:09:54;;;;;;;54.58;19.85;;;;;;;4.55;50.52;102420.59;7400016;19;20091;-68
2023/01/26 11:12:24;;;;;;;62.38;20.63;;;;;;;4.55;50.54;102411.69;7398786;19;20459;-68
2023/01/26 11:15:02;;;;;;;53.58;20.08;;;;;;;4.54;50.76;102418.16;7401739;19;20012;-69
2023/01/26 11:17:46;;;;;;;60.38;21.25;;;;;;;4.58;50.97;102420.09;7395064;19;20016;-68
2023/01/26 11:20:25;;;;;;;64.85;23.10;;;;;;;4.67;50.67;102416.88;7397252;19;20121;-70
2023/01/26 11:23:07;;;;;;;61.75;20.55;;;;;;;4.73;50.77;102411.25;7396063;19;20758;-68
2023/01/26 11:25:45;;;;;;;61.78;20.92;;;;;;;4.75;50.87;102411.78;7395518;19;20017;-69
2023/01/26 11:28:32;;;;;;;57.13;19.80;;;;;;;4.91;50.89;102410.00;7393702;19;20002;-68
2023/01/26 11:31:04;;;;;;;56.58;20.33;;;;;;;5.06;50.63;102401.13;7397141;19;20027;-69
2023/01/26 11:33:52;;;;;;;42.72;16.80;;;;;;;5.09;50.92;102403.31;7395825;19;20015;-69
2023/01/26 11:36:45;;;;;;;52.67;17.02;;;;;;;4.97;51.54;102402.72;7396147;19;20093;-68
2023/01/26 11:39:43;;;;;;;44.15;17.02;;;;;;;5.08;51.45;102401.69;7393934;19;20498;-67
2023/01/26 11:42:42;;;;;;;42.97;15.88;;;;;;;5.30;51.05;102406.09;7396632;19;20003;-68
2023/01/26 11:45:27;;;;;;;54.63;19.20;;;;;;;5.33;51.26;102395.56;7394601;19;20002;-69
2023/01/26 11:48:24;;;;;;;49.95;16.13;;;;;;;5.39;51.05;102382.88;7391669;19;20013;-68
2023/01/26 11:51:21;;;;;;;36.42;13.70;;;;;;;5.33;51.67;102386.66;7394798;19;20009;-69
2023/01/26 11:54:02;;;;;;;38.20;14.35;;;;;;;5.28;51.25;102383.91;7396284;19;20015;-68
2023/01/26 11:56:47;;;;;;;35.90;13.00;;;;;;;5.36;51.18;102380.69;7393317;19;19998;-68
2023/01/26 11:59:35;;;;;;;36.13;14.32;;;;;;;5.46;51.30;102372.59;7394061;19;20003;-69
2023/01/26 12:02:10;;;;;;;32.20;12.95;;;;;;;5.45;51.15;102368.25;7395909;19;20002;-67
2023/01/26 12:04:44;;;;;;;34.05;13.82;;;;;;;5.49;51.03;102377.47;7395511;19;20327;-69
2023/01/26 12:07:12;;;;;;;;;;;;;;;5.43;52.15;102378.53;7393975;19;20358;-68
2023/01/26 12:09:44;;;;;;;33.80;12.35;;;;;;;5.49;51.28;102363.94;7395567;19;19942;-68
2023/01/26 12:12:36;;;;;;;35.17;12.65;;;;;;;5.56;51.33;102369.09;7394607;19;20014;-69
2023/01/26 12:15:14;;;;;;;31.85;12.20;;;;;;;5.57;51.17;102358.00;7394154;19;20043;-67
2023/01/26 12:18:08;;;;;;;38.38;13.35;;;;;;;5.64;51.20;102365.03;7391746;19;20475;-69